Terminal Aerodrome Forecast
Issued by NWS Louisville, KY

Home | Current Version | Previous Version | Text Only | Print | Product List | Glossary On
Versions: 1 2 3 4 5 6 7 8 9 10 11 12 13 14 15 16 17 18
000
FTUS43 KLMK 161100
TAFLEX
TAF
KLEX 161120Z 1612/1712 21012KT P6SM -SHRA SCT018 BKN021
      TEMPO 1612/1613 23012G20KT 4SM -SHRA BKN015
     FM161300 25012G21KT P6SM VCSH SCT018 BKN021
     FM170200 26009KT P6SM BKN015=

USA.gov is the U.S. government's official web portal to all federal, state and local government web resources and services.